Rechercher aéroport 
image banner adimage banner adimage banner ad
image banner ad

PA71 - Dwight's Delight

Situé à Dushore, United States

ICAO - PA71, IATA -

Données fournies par Airmate  

Information générale

Coordonnées: N41°31'15" W76°27'44"
Élévation : 1717 feet MSL.
Variation magnétique : -11° East
Voir autres Aéroports à Pennsylvania

Données opérationnelles

Special qualification required
Heure actuelle UTC:
Heure actuelle locale:
Météo à : KIPT - Williamsport Rgnl ( 49 km )
METAR: KIPT 152054Z VRB06KT 10SM OVC095 23/12 A2979 RMK AO2 SLP086 T02330122 56005
TAF: KIPT 152106Z 1521/1618 28007KT P6SM SCT050 BKN100 FM160000 30005KT P6SM SCT100 FM160600 VRB02KT 6SM BR SKC FM161500 30008KT P6SM SKC
Voir NOTAMs / SUP AIP / TFR affectant cet aéroport [VIEW]
Fréquences de communication: [VIEW]

Pistes:

Identifiant RWYQFULongueur (ft)Largeur (ft)SurfaceLDA (ft)
07199090GRASS
25199090GRASS

Coordonnées de l'aéroport

Adresse: Dushore United States

Vue satellite de PA71